Time;durP1;ratioP1;P1;durP2;ratioP2;P2;SDS_P1;SDS_P2;PMS_P1;PMS_P2;Temp;Humidity;BMP_temperature;BMP_pressure;BME280_temperature;BME280_humidity;BME280_pressure;Samples;Min_cycle;Max_cycle;Signal;HPM_P1;HPM_P2
2022/12/29 00:00:51;;;;;;;2.50;1.85;;;9.50;99.90;;;;;;2563609;23;19996;-75
2022/12/29 00:01:52;;;;;;;3.42;2.10;;;9.50;99.90;;;;;;2563074;23;20462;-77
2022/12/29 00:02:52;;;;;;;2.25;1.77;;;9.60;99.90;;;;;;2562827;23;20380;-72
2022/12/29 00:03:53;;;;;;;3.97;2.30;;;9.50;99.90;;;;;;2562152;23;20001;-72
2022/12/29 00:04:54;;;;;;;2.78;1.83;;;9.60;99.90;;;;;;2563203;23;20047;-72
2022/12/29 00:05:56;;;;;;;4.20;2.03;;;9.60;99.90;;;;;;2564459;23;20004;-71
2022/12/29 00:06:56;;;;;;;4.78;2.03;;;9.50;99.90;;;;;;2549714;23;20056;-71
2022/12/29 00:07:57;;;;;;;3.42;2.17;;;9.60;99.90;;;;;;2549138;23;20001;-71
2022/12/29 00:08:57;;;;;;;3.65;1.98;;;9.60;99.90;;;;;;2563338;23;20008;-71
2022/12/29 00:09:58;;;;;;;2.90;1.85;;;9.60;99.90;;;;;;2564961;23;20087;-71
2022/12/29 00:10:58;;;;;;;3.20;2.10;;;9.60;99.90;;;;;;2563588;23;20009;-70
2022/12/29 00:12:00;;;;;;;2.17;1.80;;;9.70;99.90;;;;;;2563768;23;20012;-71
2022/12/29 00:15:40;;;;;;;3.15;2.20;;;9.60;99.90;;;;;;2553309;23;20625;-71
2022/12/29 00:16:43;;;;;;;2.38;2.00;;;9.60;99.90;;;;;;2562742;23;20005;-72
2022/12/29 00:17:43;;;;;;;2.53;1.80;;;9.60;99.90;;;;;;2562712;23;20059;-71
2022/12/29 00:18:44;;;;;;;4.15;1.85;;;9.70;99.90;;;;;;2564226;23;20088;-71
2022/12/29 00:35:55;;;;;;;2.47;1.63;;;9.90;99.90;;;;;;2554029;23;20119;-72
2022/12/29 00:36:56;;;;;;;2.72;1.98;;;9.90;99.90;;;;;;2562622;23;20040;-71
2022/12/29 00:44:45;;;;;;;2.95;1.95;;;10.20;99.90;;;;;;2557626;23;20004;-72
2022/12/29 00:45:46;;;;;;;4.75;2.00;;;10.20;99.90;;;;;;2565987;23;20453;-73
2022/12/29 00:46:46;;;;;;;2.50;1.70;;;10.10;99.90;;;;;;2550021;23;20012;-72
2022/12/29 00:47:47;;;;;;;3.40;1.80;;;10.20;99.90;;;;;;2550052;23;20228;-72
2022/12/29 00:50:07;;;;;;;2.72;1.80;;;10.10;99.90;;;;;;2550351;23;20013;-72
2022/12/29 00:51:08;;;;;;;2.22;1.85;;;10.10;99.90;;;;;;2550580;23;20009;-71
2022/12/29 00:52:11;;;;;;;4.03;2.00;;;10.10;99.90;;;;;;2565442;23;20000;-72
2022/12/29 00:53:11;;;;;;;1.90;1.70;;;10.10;99.90;;;;;;2563736;23;20903;-71
2022/12/29 00:54:13;;;;;;;3.83;1.77;;;10.20;99.90;;;;;;2563760;23;20418;-71
2022/12/29 00:55:13;;;;;;;5.10;1.95;;;10.20;99.90;;;;;;2564392;23;20528;-71
2022/12/29 00:56:14;;;;;;;1.95;1.75;;;10.10;99.90;;;;;;2566238;23;20063;-71
2022/12/29 00:57:15;;;;;;;3.13;1.80;;;10.10;99.90;;;;;;2563933;23;20074;-71
2022/12/29 00:58:15;;;;;;;2.33;1.80;;;10.10;99.90;;;;;;2563295;23;20199;-70
2022/12/29 00:59:16;;;;;;;3.75;2.00;;;10.10;99.90;;;;;;2565564;23;20004;-71
2022/12/29 01:00:17;;;;;;;2.20;1.80;;;10.00;99.90;;;;;;2564626;23;20012;-72
2022/12/29 01:01:18;;;;;;;3.58;2.05;;;10.10;99.90;;;;;;2563688;23;20000;-71
2022/12/29 01:02:18;;;;;;;2.97;1.83;;;10.10;99.90;;;;;;2563090;23;20001;-71
2022/12/29 01:03:21;;;;;;;2.83;1.90;;;10.00;99.90;;;;;;2552174;23;20005;-71
2022/12/29 01:04:23;;;;;;;2.55;2.03;;;10.00;99.90;;;;;;2550457;23;20086;-71
2022/12/29 01:05:24;;;;;;;2.05;1.85;;;10.00;99.90;;;;;;2550403;23;20185;-71
2022/12/29 01:06:24;;;;;;;3.83;2.20;;;10.00;99.90;;;;;;2550932;23;20001;-71
2022/12/29 01:07:25;;;;;;;2.33;1.77;;;10.00;99.90;;;;;;2564568;23;19993;-71
2022/12/29 01:08:27;;;;;;;4.45;2.20;;;10.00;99.90;;;;;;2565256;23;20441;-71
2022/12/29 01:11:01;;;;;;;4.20;1.92;;;10.00;99.90;;;;;;2563328;23;20008;-71
2022/12/29 01:12:03;;;;;;;2.67;2.00;;;9.90;99.90;;;;;;2550293;23;20013;-71
2022/12/29 01:13:04;;;;;;;4.45;2.30;;;9.90;99.90;;;;;;2550862;23;20005;-71
2022/12/29 01:14:06;;;;;;;3.45;1.80;;;9.90;99.90;;;;;;2552079;23;20088;-71
2022/12/29 01:15:08;;;;;;;3.55;2.20;;;9.90;99.90;;;;;;2538042;23;20009;-71
2022/12/29 01:16:09;;;;;;;3.15;1.90;;;9.90;99.90;;;;;;2550549;23;20005;-71
2022/12/29 01:17:09;;;;;;;2.70;2.10;;;9.90;99.90;;;;;;2549678;23;20083;-71
2022/12/29 01:18:10;;;;;;;3.88;1.92;;;9.90;99.90;;;;;;2540120;23;20047;-71
2022/12/29 01:19:11;;;;;;;2.95;2.10;;;9.90;99.90;;;;;;2538113;23;20012;-71
2022/12/29 01:20:12;;;;;;;5.18;2.20;;;9.80;99.90;;;;;;2537324;23;20017;-71
2022/12/29 01:21:13;;;;;;;2.90;1.92;;;9.80;99.90;;;;;;2550632;23;20047;-71
2022/12/29 01:22:13;;;;;;;2.38;2.05;;;9.80;99.90;;;;;;2549885;23;20005;-71
2022/12/29 01:23:14;;;;;;;2.55;1.92;;;9.80;99.90;;;;;;2552199;23;20020;-71
2022/12/29 01:24:16;;;;;;;4.70;1.88;;;9.80;99.90;;;;;;2563686;23;20433;-71
2022/12/29 01:25:17;;;;;;;2.67;2.00;;;9.80;99.90;;;;;;2563090;23;20057;-71
2022/12/29 01:26:18;;;;;;;2.83;2.10;;;9.70;99.90;;;;;;2550139;23;20071;-71
2022/12/29 01:27:18;;;;;;;3.28;2.03;;;9.70;99.90;;;;;;2538005;23;20036;-71
2022/12/29 01:28:19;;;;;;;4.00;2.10;;;9.80;99.90;;;;;;2538946;23;20073;-71
2022/12/29 01:29:20;;;;;;;3.97;2.20;;;9.80;99.90;;;;;;2551020;23;20001;-71
2022/12/29 01:30:20;;;;;;;3.83;2.10;;;9.80;99.90;;;;;;2561903;23;20080;-70
2022/12/29 01:31:21;;;;;;;2.33;1.98;;;9.80;99.90;;;;;;2564300;23;20327;-72
2022/12/29 01:32:21;;;;;;;3.97;2.20;;;9.80;99.90;;;;;;2550026;23;20040;-71
2022/12/29 01:33:22;;;;;;;2.58;1.80;;;9.80;99.90;;;;;;2549998;23;20016;-73
2022/12/29 01:34:22;;;;;;;3.53;2.20;;;9.80;99.90;;;;;;2563445;23;20047;-71
2022/12/29 01:35:23;;;;;;;2.17;1.85;;;9.90;99.90;;;;;;2565523;23;19996;-72
2022/12/29 01:36:24;;;;;;;4.45;2.50;;;9.80;99.90;;;;;;2550222;23;20011;-71
2022/12/29 01:37:25;;;;;;;3.78;2.30;;;9.80;99.90;;;;;;2537391;23;20059;-71
2022/12/29 01:38:26;;;;;;;4.05;2.30;;;9.80;99.90;;;;;;2550222;23;20068;-71
2022/12/29 01:39:27;;;;;;;4.40;2.25;;;9.80;99.90;;;;;;2552005;23;20102;-72
2022/12/29 01:40:28;;;;;;;2.92;2.25;;;9.80;99.90;;;;;;2550272;23;20082;-72
2022/12/29 01:41:29;;;;;;;3.55;2.17;;;9.80;99.90;;;;;;2537562;23;20009;-71
2022/12/29 01:42:29;;;;;;;3.15;2.10;;;9.80;99.90;;;;;;2537653;23;20005;-72
2022/12/29 01:43:58;;;;;;;4.55;2.20;;;9.80;99.90;;;;;;2551650;23;20005;-72
2022/12/29 01:45:10;;;;;;;3.35;2.17;;;9.80;99.90;;;;;;2559757;23;20008;-70
2022/12/29 01:46:42;;;;;;;3.50;2.05;;;9.80;99.90;;;;;;2563334;23;20779;-71
2022/12/29 01:48:04;;;;;;;3.53;2.47;;;9.80;99.90;;;;;;2563941;23;20292;-71
2022/12/29 01:49:08;;;;;;;3.58;2.35;;;9.80;99.90;;;;;;2562979;23;20141;-71
2022/12/29 01:50:15;;;;;;;3.10;2.15;;;9.70;99.90;;;;;;2550560;23;20129;-72
2022/12/29 01:51:16;;;;;;;3.40;2.03;;;9.80;99.90;;;;;;2552106;23;20289;-72
2022/12/29 01:52:17;;;;;;;3.85;2.20;;;9.70;99.90;;;;;;2549605;23;20057;-72
2022/12/29 01:53:30;;;;;;;3.88;2.20;;;9.70;99.90;;;;;;2539620;23;20111;-71
2022/12/29 01:54:35;;;;;;;3.28;2.40;;;9.70;99.90;;;;;;2550160;23;20410;-71
2022/12/29 01:55:46;;;;;;;3.50;2.45;;;9.80;99.90;;;;;;2550236;23;20035;-71
2022/12/29 01:56:47;;;;;;;3.28;2.20;;;9.80;99.90;;;;;;2550385;23;20454;-71
2022/12/29 01:57:51;;;;;;;3.95;2.28;;;9.70;99.90;;;;;;2537790;23;20009;-71
2022/12/29 01:59:01;;;;;;;3.65;2.38;;;9.80;99.90;;;;;;2538322;23;20731;-71
2022/12/29 02:00:07;;;;;;;2.63;2.20;;;9.70;99.90;;;;;;2539379;23;20447;-71
2022/12/29 02:01:15;;;;;;;3.50;2.10;;;9.70;99.90;;;;;;2552693;23;20092;-72
2022/12/29 02:02:16;;;;;;;2.60;2.20;;;9.70;99.90;;;;;;2565458;23;20004;-71
2022/12/29 02:03:19;;;;;;;4.32;2.50;;;9.70;99.90;;;;;;2563756;23;20508;-71
2022/12/29 02:04:20;;;;;;;3.85;2.40;;;9.70;99.90;;;;;;2562889;23;20116;-70
2022/12/29 02:05:44;;;;;;;3.67;2.13;;;9.70;99.90;;;;;;2563539;23;20092;-71
2022/12/29 02:06:57;;;;;;;3.38;2.40;;;9.70;99.90;;;;;;2564577;23;20004;-71
2022/12/29 02:07:59;;;;;;;3.00;2.33;;;9.70;99.90;;;;;;2549681;23;20092;-72
2022/12/29 02:09:00;;;;;;;4.85;2.28;;;9.70;99.90;;;;;;2551301;23;20017;-71
2022/12/29 02:10:03;;;;;;;3.75;2.38;;;9.70;99.90;;;;;;2552466;23;20013;-71
2022/12/29 02:11:04;;;;;;;5.53;2.53;;;9.70;99.90;;;;;;2549757;23;20466;-71
2022/12/29 02:12:09;;;;;;;4.05;2.30;;;9.70;99.90;;;;;;2550731;23;20005;-72
2022/12/29 02:13:10;;;;;;;2.92;2.22;;;9.70;99.90;;;;;;2549875;23;20274;-71
2022/12/29 02:14:13;;;;;;;5.68;2.17;;;9.70;99.90;;;;;;2537952;23;20109;-71
2022/12/29 02:15:14;;;;;;;3.60;2.30;;;9.70;99.90;;;;;;2539007;23;20534;-71
2022/12/29 02:16:43;;;;;;;3.20;2.50;;;9.70;99.90;;;;;;2537881;23;20394;-71
2022/12/29 02:18:10;;;;;;;3.72;2.60;;;9.70;99.90;;;;;;2539310;23;20020;-71
2022/12/29 02:19:41;;;;;;;4.90;2.47;;;9.60;99.90;;;;;;2537829;23;20020;-71
2022/12/29 02:21:20;;;;;;;4.20;2.45;;;9.70;99.90;;;;;;2558902;23;20021;-71
2022/12/29 02:22:48;;;;;;;3.10;2.28;;;9.70;99.90;;;;;;2562330;23;20335;-71
2022/12/29 02:24:23;;;;;;;3.65;2.28;;;9.70;99.90;;;;;;2563017;23;20016;-71
2022/12/29 02:26:05;;;;;;;4.50;2.38;;;9.70;99.90;;;;;;2549358;23;20043;-71
2022/12/29 02:27:23;;;;;;;5.05;2.20;;;9.70;99.90;;;;;;2560497;23;20009;-71
2022/12/29 02:29:11;;;;;;;2.90;2.30;;;9.70;99.90;;;;;;2549605;23;20414;-72
2022/12/29 02:30:29;;;;;;;5.00;2.50;;;9.70;99.90;;;;;;2534568;23;20009;-71
2022/12/29 02:31:39;;;;;;;3.88;2.38;;;9.70;99.90;;;;;;2537582;23;20050;-72
2022/12/29 02:33:06;;;;;;;2.55;2.17;;;9.80;99.90;;;;;;2541837;23;20407;-72
2022/12/29 02:34:27;;;;;;;3.58;2.40;;;9.80;99.90;;;;;;2550334;23;20013;-71
2022/12/29 02:35:53;;;;;;;4.97;2.50;;;9.80;99.90;;;;;;2552881;23;20001;-71
2022/12/29 02:37:18;;;;;;;5.30;2.50;;;9.80;99.90;;;;;;2562648;23;20095;-71
2022/12/29 02:38:40;;;;;;;4.40;2.58;;;9.80;99.90;;;;;;2549765;23;20412;-71
2022/12/29 02:39:59;;;;;;;4.10;2.22;;;9.90;99.90;;;;;;2554866;23;20062;-71
2022/12/29 02:41:09;;;;;;;3.47;2.47;;;9.90;99.90;;;;;;2549829;23;20001;-70
2022/12/29 02:42:16;;;;;;;4.32;2.50;;;9.90;99.90;;;;;;2539215;23;20029;-71
2022/12/29 02:43:36;;;;;;;3.08;2.58;;;9.90;99.90;;;;;;2549984;23;21006;-71
2022/12/29 02:45:10;;;;;;;3.13;2.20;;;9.90;99.90;;;;;;2552423;23;20017;-70
2022/12/29 02:46:40;;;;;;;4.18;2.30;;;9.90;99.90;;;;;;2541342;23;20036;-71
2022/12/29 02:47:44;;;;;;;3.72;2.30;;;9.90;99.90;;;;;;2562398;23;20013;-71
2022/12/29 02:48:56;;;;;;;3.60;2.38;;;9.90;99.90;;;;;;2551887;23;20001;-71
2022/12/29 02:50:03;;;;;;;4.45;2.58;;;9.90;99.90;;;;;;2552726;23;20365;-72
2022/12/29 02:51:13;;;;;;;3.22;2.25;;;9.90;99.90;;;;;;2563029;23;20011;-72
2022/12/29 02:52:21;;;;;;;4.65;2.47;;;9.90;99.90;;;;;;2562992;23;20456;-70
2022/12/29 02:54:40;;;;;;;4.78;2.40;;;9.90;99.90;;;;;;2549779;23;20092;-70
2022/12/29 02:54:44;;;;;;;2.92;2.20;;;10.00;99.90;;;;;;2541590;23;20012;-70
2022/12/29 02:55:51;;;;;;;4.80;2.40;;;10.00;99.90;;;;;;2537798;23;20076;-70
2022/12/29 02:56:51;;;;;;;2.95;2.30;;;10.00;99.90;;;;;;2538973;23;20020;-70
2022/12/29 02:58:21;;;;;;;4.72;2.30;;;10.00;99.90;;;;;;2552310;23;20425;-71
2022/12/29 02:59:23;;;;;;;2.85;2.33;;;9.90;99.90;;;;;;2537443;23;20009;-71
2022/12/29 03:00:24;;;;;;;3.58;2.25;;;9.90;99.90;;;;;;2538139;23;20547;-71
2022/12/29 03:02:18;;;;;;;3.92;2.40;;;9.90;99.90;;;;;;2550209;23;20032;-72
2022/12/29 03:03:54;;;;;;;2.78;2.38;;;9.90;99.90;;;;;;2562494;23;20008;-71
2022/12/29 03:05:25;;;;;;;3.45;2.38;;;9.90;99.90;;;;;;2549800;23;20449;-71
2022/12/29 03:07:07;;;;;;;2.80;2.25;;;9.90;99.90;;;;;;2556619;23;20004;-71
2022/12/29 03:08:28;;;;;;;3.28;2.40;;;9.90;99.90;;;;;;2513789;23;20045;-71
2022/12/29 03:09:43;;;;;;;3.83;2.20;;;9.90;99.90;;;;;;2512252;23;20002;-71
2022/12/29 03:10:49;;;;;;;4.65;2.20;;;9.90;99.90;;;;;;2549323;23;20000;-71
2022/12/29 03:12:07;;;;;;;3.85;2.08;;;10.00;99.90;;;;;;2551204;23;20454;-72
2022/12/29 03:16:35;;;;;;;4.30;2.20;;;10.00;99.90;;;;;;2549937;23;20354;-70
2022/12/29 03:17:48;;;;;;;3.28;2.20;;;10.00;99.90;;;;;;2555455;23;20012;-71
2022/12/29 03:18:49;;;;;;;3.55;2.30;;;10.10;99.90;;;;;;2551812;23;20035;-71
2022/12/29 03:19:52;;;;;;;3.78;2.22;;;10.20;99.90;;;;;;2549629;23;20012;-71
2022/12/29 03:20:58;;;;;;;3.65;2.20;;;10.20;99.90;;;;;;2526601;23;20033;-70
2022/12/29 03:23:29;;;;;;;3.38;2.30;;;10.30;99.90;;;;;;2544387;23;20037;-71
2022/12/29 03:24:35;;;;;;;3.47;2.20;;;10.30;99.90;;;;;;2537385;23;20009;-72
2022/12/29 03:25:40;;;;;;;3.00;2.00;;;10.30;99.90;;;;;;2540207;23;20109;-73
2022/12/29 03:26:46;;;;;;;3.08;2.10;;;10.30;99.90;;;;;;2540760;23;20434;-72
2022/12/29 03:27:55;;;;;;;3.40;2.42;;;10.40;99.90;;;;;;2550121;23;20029;-72
2022/12/29 03:28:57;;;;;;;2.58;2.30;;;10.30;99.90;;;;;;2561639;23;20015;-72
2022/12/29 03:30:03;;;;;;;2.88;2.10;;;10.40;99.90;;;;;;2562189;23;20012;-71
2022/12/29 03:31:06;;;;;;;3.78;2.08;;;10.30;99.90;;;;;;2549341;23;20590;-72
2022/12/29 03:32:11;;;;;;;2.95;2.20;;;10.40;99.90;;;;;;2537767;23;20014;-71
2022/12/29 03:33:21;;;;;;;3.42;2.30;;;10.40;99.90;;;;;;2538209;23;20303;-72
2022/12/29 03:34:24;;;;;;;3.00;2.10;;;10.30;99.90;;;;;;2527476;23;20014;-71
2022/12/29 03:35:29;;;;;;;5.40;2.35;;;10.30;99.90;;;;;;2538468;23;20037;-71
2022/12/29 03:36:39;;;;;;;3.03;2.20;;;10.40;99.90;;;;;;2551501;23;20007;-72
2022/12/29 03:37:45;;;;;;;2.85;2.20;;;10.50;99.90;;;;;;2551849;23;20017;-72
2022/12/29 03:38:57;;;;;;;3.00;2.17;;;10.50;99.90;;;;;;2539307;23;20060;-72
2022/12/29 03:39:57;;;;;;;3.47;2.20;;;10.60;99.90;;;;;;2539313;23;20362;-71
2022/12/29 03:41:03;;;;;;;4.90;2.40;;;10.60;99.90;;;;;;2551913;23;20035;-71
2022/12/29 03:42:13;;;;;;;3.50;2.20;;;10.60;99.90;;;;;;2563759;23;20011;-71
2022/12/29 03:43:14;;;;;;;2.92;2.10;;;10.60;99.90;;;;;;2564313;23;20036;-72
2022/12/29 03:44:15;;;;;;;3.65;2.40;;;10.60;99.90;;;;;;2546397;23;20075;-72
2022/12/29 03:45:16;;;;;;;4.25;2.10;;;10.60;99.90;;;;;;2547669;23;20037;-71
2022/12/29 03:46:17;;;;;;;3.30;2.20;;;10.50;99.90;;;;;;2550900;23;20001;-72
2022/12/29 03:47:17;;;;;;;3.67;2.28;;;10.60;99.90;;;;;;2564796;23;20508;-71
2022/12/29 03:48:20;;;;;;;3.38;2.10;;;10.60;99.90;;;;;;2549296;23;20068;-72
2022/12/29 03:49:21;;;;;;;3.47;2.10;;;10.60;99.90;;;;;;2537208;23;20009;-72
2022/12/29 03:50:22;;;;;;;3.88;2.33;;;10.60;99.90;;;;;;2536959;23;20010;-71
2022/12/29 03:51:23;;;;;;;4.03;2.15;;;10.60;99.90;;;;;;2537193;23;20112;-70
2022/12/29 03:52:23;;;;;;;2.63;1.95;;;10.60;99.90;;;;;;2527304;23;20010;-71
2022/12/29 03:53:26;;;;;;;4.10;2.28;;;10.70;99.90;;;;;;2537157;23;20029;-72
2022/12/29 03:54:27;;;;;;;3.58;2.25;;;10.70;99.90;;;;;;2537691;23;20390;-72
2022/12/29 03:55:28;;;;;;;2.58;2.10;;;10.70;99.90;;;;;;2537727;23;20100;-73
2022/12/29 03:56:28;;;;;;;3.60;2.40;;;10.70;99.90;;;;;;2551075;23;20084;-72
2022/12/29 03:57:29;;;;;;;3.50;2.20;;;10.70;99.90;;;;;;2550229;23;20009;-72
2022/12/29 03:58:40;;;;;;;3.78;2.05;;;10.70;99.90;;;;;;2539757;23;20061;-73
2022/12/29 03:59:48;;;;;;;6.30;2.30;;;10.70;99.90;;;;;;2538154;23;20039;-73
2022/12/29 04:00:49;;;;;;;4.78;2.15;;;10.70;99.90;;;;;;2538729;23;20072;-72
2022/12/29 04:01:50;;;;;;;3.10;2.10;;;10.70;99.90;;;;;;2549921;23;20557;-73
2022/12/29 04:02:51;;;;;;;3.38;2.20;;;10.70;99.90;;;;;;2549437;23;20009;-73
2022/12/29 04:03:55;;;;;;;3.28;2.22;;;10.70;99.90;;;;;;2525597;23;20002;-72
2022/12/29 04:04:56;;;;;;;3.35;2.10;;;10.60;99.90;;;;;;2528082;23;20161;-73
2022/12/29 04:05:57;;;;;;;3.42;2.40;;;10.70;99.90;;;;;;2549556;23;20005;-73
2022/12/29 04:06:58;;;;;;;2.72;2.10;;;10.70;99.90;;;;;;2550022;23;20008;-72
2022/12/29 04:07:59;;;;;;;2.58;2.00;;;10.70;99.90;;;;;;2538023;23;20006;-73
2022/12/29 04:09:01;;;;;;;2.72;2.10;;;10.70;99.90;;;;;;2539413;23;20549;-73
2022/12/29 04:10:03;;;;;;;3.38;2.10;;;10.70;99.90;;;;;;2539336;23;20324;-74
2022/12/29 04:11:06;;;;;;;3.28;2.10;;;10.70;99.90;;;;;;2549660;23;20013;-74
2022/12/29 04:12:07;;;;;;;3.72;2.20;;;10.70;99.90;;;;;;2549840;23;20414;-74
2022/12/29 04:13:09;;;;;;;3.72;2.10;;;10.70;99.90;;;;;;2550133;23;20340;-74
2022/12/29 04:14:10;;;;;;;3.60;2.22;;;10.70;99.90;;;;;;2551464;23;20435;-74
2022/12/29 04:15:10;;;;;;;2.80;2.25;;;10.60;99.90;;;;;;2549162;23;20001;-74
2022/12/29 04:16:11;;;;;;;4.00;2.10;;;10.60;99.90;;;;;;2563099;23;20316;-74
2022/12/29 04:17:11;;;;;;;2.55;1.98;;;10.60;99.90;;;;;;2550217;23;20032;-74
2022/12/29 04:18:13;;;;;;;2.83;2.05;;;10.60;99.90;;;;;;2536673;23;20026;-74
2022/12/29 04:19:14;;;;;;;3.40;2.10;;;10.60;99.90;;;;;;2537716;23;20016;-74
2022/12/29 04:21:39;;;;;;;4.55;2.00;;;10.60;99.90;;;;;;2541514;23;20330;-74
2022/12/29 04:22:40;;;;;;;3.70;2.05;;;10.60;99.90;;;;;;2549363;23;20095;-73
2022/12/29 04:23:42;;;;;;;3.50;2.05;;;10.60;99.90;;;;;;2551449;23;20008;-74
2022/12/29 04:24:44;;;;;;;5.57;2.08;;;10.60;99.90;;;;;;2537255;23;20088;-74
2022/12/29 04:25:49;;;;;;;3.08;2.00;;;10.60;99.90;;;;;;2537286;23;20037;-74
2022/12/29 04:26:50;;;;;;;4.60;2.17;;;10.50;99.90;;;;;;2549849;23;20048;-74
2022/12/29 04:28:08;;;;;;;3.13;2.00;;;10.50;99.90;;;;;;2551170;23;20064;-74
2022/12/29 04:29:18;;;;;;;2.33;1.77;;;10.60;99.90;;;;;;2551318;23;20161;-74
2022/12/29 04:30:29;;;;;;;2.95;2.10;;;10.70;99.90;;;;;;2553212;23;19997;-74
2022/12/29 04:31:47;;;;;;;2.78;1.88;;;10.70;99.90;;;;;;2551345;23;20037;-74
2022/12/29 04:32:47;;;;;;;2.47;1.90;;;10.70;99.90;;;;;;2551795;23;20002;-74
2022/12/29 04:33:48;;;;;;;3.38;1.90;;;10.70;99.90;;;;;;2549012;23;20043;-74
2022/12/29 04:34:48;;;;;;;2.10;1.70;;;10.80;99.90;;;;;;2549281;23;20016;-74
2022/12/29 04:35:49;;;;;;;2.88;1.70;;;10.80;99.90;;;;;;2561872;23;20012;-74
2022/12/29 04:36:51;;;;;;;2.10;1.83;;;10.80;99.90;;;;;;2551703;23;20087;-74
2022/12/29 04:37:52;;;;;;;3.67;1.90;;;10.80;99.90;;;;;;2538479;23;20339;-76
2022/12/29 04:38:52;;;;;;;2.38;2.00;;;10.80;99.90;;;;;;2536924;23;20005;-73
2022/12/29 04:39:54;;;;;;;2.15;1.80;;;10.80;99.90;;;;;;2550089;23;20016;-75
2022/12/29 04:40:55;;;;;;;3.20;1.88;;;10.80;99.90;;;;;;2551741;23;20054;-73
2022/12/29 04:41:57;;;;;;;1.70;1.60;;;10.80;99.90;;;;;;2552384;23;20072;-73
2022/12/29 04:42:58;;;;;;;2.03;1.60;;;10.70;99.90;;;;;;2562678;23;20004;-74
2022/12/29 04:43:59;;;;;;;1.77;1.60;;;10.70;99.90;;;;;;2548824;23;20009;-73
2022/12/29 04:45:15;;;;;;;3.10;1.80;;;10.70;99.90;;;;;;2545075;23;20009;-74
2022/12/29 04:46:28;;;;;;;1.80;1.50;;;10.70;99.90;;;;;;2551460;23;20619;-75
2022/12/29 04:47:41;;;;;;;2.17;1.67;;;10.60;99.90;;;;;;2539297;23;20465;-73
2022/12/29 04:49:04;;;;;;;2.72;1.80;;;10.60;99.90;;;;;;2543981;23;20009;-74
2022/12/29 04:50:23;;;;;;;2.17;1.63;;;10.60;99.90;;;;;;2550430;23;20457;-73
2022/12/29 04:51:34;;;;;;;;;;;10.60;99.90;;;;;;2551448;23;20008;-74
2022/12/29 04:52:35;;;;;;;2.10;1.80;;;10.60;99.90;;;;;;2549504;23;20578;-74
2022/12/29 04:53:37;;;;;;;2.33;1.70;;;10.60;99.90;;;;;;2538167;23;20064;-74
2022/12/29 04:54:38;;;;;;;2.80;1.80;;;10.60;99.90;;;;;;2551291;23;20009;-73
2022/12/29 04:55:44;;;;;;;2.20;1.80;;;10.60;99.90;;;;;;2551250;23;20025;-73
2022/12/29 04:56:44;;;;;;;2.05;1.80;;;10.50;99.90;;;;;;2549454;23;20112;-72
2022/12/29 04:57:48;;;;;;;2.08;1.70;;;10.60;99.90;;;;;;2549393;23;20462;-74
2022/12/29 04:58:52;;;;;;;3.38;1.65;;;10.60;99.90;;;;;;2537769;23;20021;-73
2022/12/29 04:59:55;;;;;;;1.60;1.50;;;10.60;99.90;;;;;;2549655;23;20012;-75
2022/12/29 05:00:56;;;;;;;4.07;1.80;;;10.60;99.90;;;;;;2551856;23;20401;-73
2022/12/29 05:01:59;;;;;;;2.65;1.80;;;10.60;99.90;;;;;;2551345;23;20324;-73
2022/12/29 05:02:59;;;;;;;2.35;1.65;;;10.60;99.90;;;;;;2549363;23;20028;-73
2022/12/29 05:04:00;;;;;;;2.25;1.80;;;10.60;99.90;;;;;;2550362;23;20040;-73
2022/12/29 05:05:01;;;;;;;2.40;1.60;;;10.70;99.90;;;;;;2550654;23;20083;-73
2022/12/29 05:06:02;;;;;;;2.67;1.70;;;10.60;99.90;;;;;;2561716;23;20009;-73
2022/12/29 05:07:03;;;;;;;1.73;1.60;;;10.60;99.90;;;;;;2551240;23;20245;-73
2022/12/29 05:08:04;;;;;;;2.47;1.65;;;10.60;99.90;;;;;;2549619;23;20024;-73
2022/12/29 05:09:05;;;;;;;3.15;2.00;;;10.60;99.90;;;;;;2537494;23;20006;-73
2022/12/29 05:10:07;;;;;;;3.15;1.80;;;10.60;99.90;;;;;;2537624;23;20446;-74
2022/12/29 05:11:07;;;;;;;4.07;1.75;;;10.50;99.90;;;;;;2539108;23;20017;-73
2022/12/29 05:12:08;;;;;;;2.35;1.60;;;10.60;99.90;;;;;;2550416;23;20253;-72
2022/12/29 05:13:14;;;;;;;2.47;1.77;;;10.60;99.90;;;;;;2549875;23;20017;-73
2022/12/29 05:14:14;;;;;;;1.85;1.58;;;10.50;99.90;;;;;;2550437;23;20021;-73
2022/12/29 05:15:15;;;;;;;1.75;1.65;;;10.60;99.90;;;;;;2552738;23;20513;-73
2022/12/29 05:16:17;;;;;;;2.00;1.55;;;10.60;99.90;;;;;;2537660;23;20005;-74
2022/12/29 05:17:17;;;;;;;2.50;1.73;;;10.50;99.90;;;;;;2550078;23;20001;-74
2022/12/29 05:18:19;;;;;;;2.83;1.70;;;10.50;99.90;;;;;;2551107;23;20465;-73
2022/12/29 05:19:19;;;;;;;1.95;1.67;;;10.60;99.90;;;;;;2551740;23;20001;-73
2022/12/29 05:20:21;;;;;;;2.45;1.90;;;10.60;99.90;;;;;;2550265;23;20370;-73
2022/12/29 05:21:22;;;;;;;1.70;1.60;;;10.70;99.90;;;;;;2537875;23;20037;-73
2022/12/29 05:22:23;;;;;;;2.80;1.85;;;10.70;99.90;;;;;;2549765;23;20057;-73
2022/12/29 05:23:24;;;;;;;4.03;1.80;;;10.80;99.90;;;;;;2539602;23;20014;-73
2022/12/29 05:24:35;;;;;;;2.35;1.90;;;10.80;99.90;;;;;;2550328;23;20446;-74
2022/12/29 05:25:35;;;;;;;2.20;1.80;;;10.80;99.90;;;;;;2540281;23;20126;-73
2022/12/29 05:26:46;;;;;;;2.88;1.70;;;10.80;99.90;;;;;;2550726;23;20008;-73
2022/12/29 05:28:06;;;;;;;3.05;1.75;;;10.80;99.90;;;;;;2550763;23;20015;-74
2022/12/29 05:29:24;;;;;;;2.83;1.75;;;10.80;99.90;;;;;;2555582;23;20039;-73
2022/12/29 05:30:25;;;;;;;3.40;1.80;;;10.80;99.90;;;;;;2559275;23;20004;-73
2022/12/29 05:31:26;;;;;;;2.22;1.73;;;10.80;99.90;;;;;;2550435;23;20005;-74
2022/12/29 05:32:27;;;;;;;3.70;1.80;;;10.80;99.90;;;;;;2539977;23;20006;-74
2022/12/29 05:33:28;;;;;;;2.92;2.00;;;10.80;99.90;;;;;;2550481;23;20462;-74
2022/12/29 05:34:29;;;;;;;3.65;2.22;;;10.80;99.90;;;;;;2537771;23;19998;-74
2022/12/29 05:35:31;;;;;;;4.50;2.10;;;10.80;99.90;;;;;;2538129;23;20056;-73
2022/12/29 05:36:34;;;;;;;5.40;3.08;;;10.70;99.90;;;;;;2540202;23;20058;-75
2022/12/29 05:37:36;;;;;;;3.63;1.85;;;10.70;99.90;;;;;;2528938;23;20014;-75
2022/12/29 05:38:37;;;;;;;4.15;1.90;;;10.70;99.90;;;;;;2539226;23;20017;-74
2022/12/29 05:39:37;;;;;;;3.72;1.92;;;10.70;99.90;;;;;;2538074;23;20347;-74
2022/12/29 05:40:39;;;;;;;4.85;1.95;;;10.60;99.90;;;;;;2551710;23;20016;-73
2022/12/29 05:41:50;;;;;;;3.15;1.90;;;10.60;99.90;;;;;;2540174;23;20005;-73
2022/12/29 05:43:02;;;;;;;4.30;1.83;;;10.60;99.90;;;;;;2550517;23;20012;-73
2022/12/29 05:44:11;;;;;;;3.28;1.95;;;10.70;99.90;;;;;;2549290;23;20069;-73
2022/12/29 05:45:22;;;;;;;2.65;2.00;;;10.70;99.90;;;;;;2540999;23;20005;-73
2022/12/29 05:46:49;;;;;;;3.25;1.65;;;10.60;99.90;;;;;;2555215;23;20098;-74
2022/12/29 05:47:53;;;;;;;3.10;1.83;;;10.60;99.90;;;;;;2552320;23;20001;-73
2022/12/29 05:49:12;;;;;;;3.00;1.88;;;10.60;99.90;;;;;;2542712;23;20013;-74
2022/12/29 05:50:32;;;;;;;2.60;1.80;;;10.60;99.90;;;;;;2551391;23;20138;-73
2022/12/29 05:51:48;;;;;;;3.42;2.22;;;10.60;99.90;;;;;;2549914;23;20013;-74
2022/12/29 05:52:49;;;;;;;4.20;1.95;;;10.70;99.90;;;;;;2537741;23;20010;-75
2022/12/29 05:53:50;;;;;;;3.03;1.92;;;10.60;99.90;;;;;;2550579;23;20446;-73
2022/12/29 05:54:51;;;;;;;3.13;2.00;;;10.60;99.90;;;;;;2562045;23;20339;-72
2022/12/29 05:55:55;;;;;;;3.08;1.80;;;10.60;99.90;;;;;;2552074;23;20083;-74
2022/12/29 05:56:55;;;;;;;1.95;1.75;;;10.60;99.90;;;;;;2539260;23;20086;-74
2022/12/29 05:57:56;;;;;;;2.00;1.80;;;10.50;99.90;;;;;;2537626;23;20009;-74
2022/12/29 05:58:57;;;;;;;2.70;2.00;;;10.50;99.90;;;;;;2538139;23;20017;-73
2022/12/29 05:59:58;;;;;;;2.95;1.92;;;10.50;99.90;;;;;;2540223;23;20009;-75
2022/12/29 06:00:59;;;;;;;3.35;1.80;;;10.60;99.90;;;;;;2538239;23;20418;-74
2022/12/29 06:02:00;;;;;;;4.28;2.03;;;10.60;99.90;;;;;;2537991;23;20545;-74
2022/12/29 06:03:00;;;;;;;2.78;1.90;;;10.60;99.90;;;;;;2537609;23;20080;-74
2022/12/29 06:04:01;;;;;;;3.25;1.80;;;10.60;99.90;;;;;;2550565;23;20411;-78
2022/12/29 06:05:02;;;;;;;2.53;1.85;;;10.60;99.90;;;;;;2551002;23;20037;-78
2022/12/29 06:06:03;;;;;;;2.60;1.70;;;10.60;99.90;;;;;;2551870;23;20099;-72
2022/12/29 06:07:03;;;;;;;3.97;2.00;;;10.60;99.90;;;;;;2550384;23;20372;-80
2022/12/29 06:08:14;;;;;;;3.30;1.90;;;10.60;99.90;;;;;;2552362;23;20452;-78
2022/12/29 06:09:15;;;;;;;2.05;1.80;;;10.60;99.90;;;;;;2550229;23;20005;-80
2022/12/29 06:10:17;;;;;;;4.05;1.88;;;10.60;99.90;;;;;;2550454;23;20059;-79
2022/12/29 06:11:21;;;;;;;2.40;1.83;;;10.60;99.90;;;;;;2550888;23;20016;-79
2022/12/29 06:12:29;;;;;;;2.00;1.70;;;10.60;99.90;;;;;;2550636;23;20001;-79
2022/12/29 06:13:30;;;;;;;3.25;1.88;;;10.70;99.90;;;;;;2551054;23;20454;-78
2022/12/29 06:14:31;;;;;;;4.70;1.70;;;10.70;99.90;;;;;;2551042;23;20151;-78
2022/12/29 06:15:34;;;;;;;2.80;1.70;;;10.80;99.90;;;;;;2552063;23;20454;-79
2022/12/29 06:16:34;;;;;;;3.45;1.90;;;10.70;99.90;;;;;;2550305;23;20024;-78
2022/12/29 06:17:39;;;;;;;2.65;1.88;;;10.70;99.90;;;;;;2538303;23;20002;-78
2022/12/29 06:18:39;;;;;;;3.30;1.88;;;10.70;99.90;;;;;;2538185;23;20009;-79
2022/12/29 06:19:42;;;;;;;2.65;1.80;;;10.70;99.90;;;;;;2537574;23;20023;-79